Terminal Aerodrome Forecast
Issued by NWS

Home | Current Version | Previous Version | Text Only | Print | Product List | Glossary On
Versions: 1 2 3 4 5 6 7 8 9 10 11 12 13 14 15
000
FTUS46 KLOX 260500
TAFPRB
TAF
KPRB 260539Z 2606/2706 13005KT P6SM BKN200
     FM260800 VRB03KT P6SM BKN200
     FM261900 12007KT P6SM BKN050 OVC100
     FM270200 17006KT P6SM VCSH OVC100
     FM270400 VRB05KT P6SM OVC100
      TEMPO 2704/2706 P6SM -RA OVC100=

USA.gov is the U.S. government's official web portal to all federal, state and local government web resources and services.